Time;durP1;ratioP1;P1;durP2;ratioP2;P2;SDS_P1;SDS_P2;PMS_P1;PMS_P2;Temp;Humidity;BMP_temperature;BMP_pressure;BME280_temperature;BME280_humidity;BME280_pressure;Samples;Min_cycle;Max_cycle;Signal;HPM_P1;HPM_P2
2023/06/08 00:02:17;;;;;;;6.63;5.03;;;18.80;99.90;;;;;;5016660;28;20021;-67
2023/06/08 00:04:45;;;;;;;7.82;5.40;;;18.80;99.90;;;;;;5017624;28;20037;-67
2023/06/08 00:07:14;;;;;;;10.93;5.30;;;18.80;99.90;;;;;;5016383;28;20026;-68
2023/06/08 00:09:40;;;;;;;6.28;4.70;;;18.80;99.90;;;;;;5016622;28;20092;-67
2023/06/08 00:12:06;;;;;;;6.53;4.95;;;18.70;99.90;;;;;;5016444;28;20121;-68
2023/06/08 00:14:34;;;;;;;6.85;5.10;;;18.70;99.90;;;;;;5017169;28;20108;-68
2023/06/08 00:17:02;;;;;;;7.63;5.65;;;18.60;99.90;;;;;;5016381;28;20026;-68
2023/06/08 00:19:33;;;;;;;8.35;5.47;;;18.50;99.90;;;;;;5016351;28;20068;-67
2023/06/08 00:22:04;;;;;;;9.27;5.13;;;18.50;99.90;;;;;;5017202;28;20018;-68
2023/06/08 00:24:31;;;;;;;7.53;5.63;;;18.60;99.90;;;;;;5016452;28;20037;-68
2023/06/08 00:26:56;;;;;;;8.98;5.28;;;18.60;99.90;;;;;;5017288;28;20030;-68
2023/06/08 00:29:22;;;;;;;7.55;5.38;;;18.50;99.90;;;;;;5016491;28;20026;-68
2023/06/08 00:31:48;;;;;;;13.90;5.95;;;18.40;99.90;;;;;;5016440;28;20026;-68
2023/06/08 00:34:14;;;;;;;7.10;5.07;;;18.40;99.90;;;;;;5017353;28;20026;-68
2023/06/08 00:36:40;;;;;;;10.90;5.78;;;18.30;99.90;;;;;;5016501;28;20109;-68
2023/06/08 00:39:05;;;;;;;9.90;5.53;;;18.20;99.90;;;;;;5016400;28;20112;-68
2023/06/08 00:41:31;;;;;;;7.03;5.40;;;18.20;99.90;;;;;;5016893;28;20044;-68
2023/06/08 00:43:56;;;;;;;8.05;5.65;;;18.20;99.90;;;;;;5016433;28;20026;-67
2023/06/08 00:46:25;;;;;;;11.57;5.90;;;18.20;99.90;;;;;;5018651;28;20028;-67
2023/06/08 00:48:53;;;;;;;8.55;5.97;;;18.10;99.90;;;;;;5020884;28;20026;-68
2023/06/08 00:51:20;;;;;;;9.70;6.30;;;18.00;99.90;;;;;;5020444;28;20026;-67
2023/06/08 00:53:46;;;;;;;12.23;5.88;;;18.10;99.90;;;;;;5020082;28;20026;-68
2023/06/08 00:56:16;;;;;;;9.07;6.30;;;18.00;99.90;;;;;;5019940;28;20029;-68
2023/06/08 00:58:52;;;;;;;10.65;6.30;;;18.10;99.90;;;;;;5020523;28;20041;-68
2023/06/08 01:01:18;;;;;;;11.23;6.25;;;18.00;99.90;;;;;;5020803;28;20108;-68
2023/06/08 01:03:47;;;;;;;10.82;5.85;;;18.00;99.90;;;;;;5019541;28;20112;-67
2023/06/08 01:06:16;;;;;;;9.55;6.10;;;17.80;99.90;;;;;;5020140;28;20168;-67
2023/06/08 01:08:47;;;;;;;11.60;6.97;;;17.90;99.90;;;;;;5019417;28;20117;-67
2023/06/08 01:11:40;;;;;;;14.85;6.20;;;18.00;99.90;;;;;;5019494;28;20057;-68
2023/06/08 01:14:29;;;;;;;11.77;6.50;;;18.10;99.90;;;;;;5045143;22;20046;-70
2023/06/08 01:17:00;;;;;;;10.50;6.30;;;18.00;99.90;;;;;;5020623;28;20064;-70
2023/06/08 01:19:58;;;;;;;8.88;5.80;;;18.00;99.90;;;;;;5019509;28;20114;-70
2023/06/08 01:22:47;;;;;;;14.27;7.15;;;18.00;99.90;;;;;;5019224;28;20034;-69
2023/06/08 01:25:16;;;;;;;7.88;5.68;;;17.90;99.90;;;;;;5020168;28;20021;-70
2023/06/08 01:27:41;;;;;;;10.57;6.70;;;17.90;99.90;;;;;;5019935;28;20029;-70
2023/06/08 01:30:08;;;;;;;11.63;5.53;;;18.00;99.90;;;;;;5020139;28;20030;-70
2023/06/08 01:32:34;;;;;;;9.60;6.28;;;18.10;99.90;;;;;;5019444;28;20089;-70
2023/06/08 01:35:00;;;;;;;10.05;6.53;;;18.10;99.90;;;;;;5020092;28;20134;-70
2023/06/08 01:37:41;;;;;;;12.48;6.70;;;17.90;99.90;;;;;;5018973;28;20022;-70
2023/06/08 01:40:24;;;;;;;10.70;5.43;;;17.90;99.90;;;;;;5018921;28;20029;-70
2023/06/08 01:42:51;;;;;;;11.00;6.13;;;18.00;99.90;;;;;;5019788;28;20026;-70
2023/06/08 01:45:21;;;;;;;11.07;6.25;;;18.00;99.90;;;;;;5019065;28;20104;-70
2023/06/08 01:47:50;;;;;;;8.38;5.63;;;18.00;99.90;;;;;;5019240;28;20033;-70
2023/06/08 01:50:17;;;;;;;8.68;6.00;;;18.00;99.90;;;;;;5019539;28;20061;-70
2023/06/08 01:52:43;;;;;;;7.65;6.40;;;18.00;99.90;;;;;;5018597;28;20026;-70
2023/06/08 01:55:18;;;;;;;8.00;5.90;;;17.90;99.90;;;;;;5019657;28;20030;-70
2023/06/08 01:57:44;;;;;;;8.43;5.90;;;18.00;99.90;;;;;;5018536;28;20113;-70
2023/06/08 02:00:11;;;;;;;7.50;6.00;;;18.00;99.90;;;;;;5018887;28;20053;-70
2023/06/08 02:02:37;;;;;;;10.30;6.20;;;18.10;99.90;;;;;;5019277;28;20033;-70
2023/06/08 02:05:07;;;;;;;11.00;7.25;;;18.10;99.90;;;;;;5018338;28;20030;-70
2023/06/08 02:07:33;;;;;;;8.20;5.30;;;18.10;99.90;;;;;;5018357;28;20033;-70
2023/06/08 02:09:58;;;;;;;7.60;6.05;;;18.00;99.90;;;;;;5018959;28;20029;-70
2023/06/08 02:12:23;;;;;;;8.60;6.43;;;18.00;99.90;;;;;;5018301;28;20080;-70
2023/06/08 02:14:49;;;;;;;10.70;6.35;;;17.90;99.90;;;;;;5019206;28;20061;-70
2023/06/08 02:17:25;;;;;;;9.98;6.25;;;17.90;99.90;;;;;;5018584;28;20112;-70
2023/06/08 02:19:51;;;;;;;9.07;6.25;;;17.90;99.90;;;;;;5019082;28;20040;-70
2023/06/08 02:22:16;;;;;;;7.95;6.45;;;18.00;99.90;;;;;;5018153;28;20089;-70
2023/06/08 02:24:44;;;;;;;12.98;6.38;;;17.80;99.90;;;;;;5018055;28;20030;-70
2023/06/08 02:27:09;;;;;;;10.30;6.50;;;17.80;99.90;;;;;;5017984;28;20037;-70
2023/06/08 02:29:35;;;;;;;17.10;6.45;;;17.90;99.90;;;;;;5018127;28;20120;-71
2023/06/08 02:32:01;;;;;;;9.23;6.38;;;17.90;99.90;;;;;;5018893;28;20025;-70
2023/06/08 02:34:27;;;;;;;9.85;6.25;;;17.90;99.90;;;;;;5018692;28;20037;-70
2023/06/08 02:36:52;;;;;;;9.15;6.05;;;17.60;99.90;;;;;;5018665;28;20022;-70
2023/06/08 02:39:18;;;;;;;13.32;6.75;;;17.70;99.90;;;;;;5018812;28;20018;-70
2023/06/08 02:41:43;;;;;;;9.80;6.60;;;17.60;99.90;;;;;;5018135;28;20022;-70
2023/06/08 02:44:09;;;;;;;9.10;6.80;;;17.60;99.90;;;;;;5017617;28;20030;-70
2023/06/08 02:46:36;;;;;;;8.32;6.85;;;17.70;99.90;;;;;;5018674;28;20037;-70
2023/06/08 02:49:02;;;;;;;18.98;6.50;;;17.50;99.90;;;;;;5018466;28;20056;-70
2023/06/08 02:51:27;;;;;;;11.20;6.30;;;17.40;99.90;;;;;;5017636;28;20030;-70
2023/06/08 02:53:53;;;;;;;9.82;6.90;;;17.60;99.90;;;;;;5018325;28;20032;-70
2023/06/08 02:56:18;;;;;;;8.65;6.68;;;17.50;99.90;;;;;;5017517;28;20089;-70
2023/06/08 02:58:46;;;;;;;10.75;7.22;;;17.60;99.90;;;;;;5017838;28;20030;-70
2023/06/08 03:01:15;;;;;;;9.02;6.65;;;17.30;99.90;;;;;;5018338;28;20018;-70
2023/06/08 03:03:42;;;;;;;10.10;6.35;;;17.20;99.90;;;;;;5017309;28;20088;-70
2023/06/08 03:06:09;;;;;;;8.18;6.38;;;17.30;99.90;;;;;;5017416;28;20022;-70
2023/06/08 03:08:39;;;;;;;11.70;6.40;;;17.30;99.90;;;;;;5016880;28;20022;-70
2023/06/08 03:11:04;;;;;;;9.32;6.70;;;17.20;99.90;;;;;;5018099;28;20117;-70
2023/06/08 03:13:30;;;;;;;9.10;6.28;;;17.00;99.90;;;;;;5016914;28;20131;-70
2023/06/08 03:15:55;;;;;;;9.98;6.82;;;17.30;99.90;;;;;;5018178;28;20029;-70
2023/06/08 03:18:24;;;;;;;9.15;6.05;;;17.10;99.90;;;;;;5017208;28;20022;-70
2023/06/08 03:20:51;;;;;;;10.80;5.97;;;17.20;99.90;;;;;;5018143;28;20089;-71
2023/06/08 03:23:20;;;;;;;11.55;6.38;;;17.20;99.90;;;;;;5017999;28;20076;-71
2023/06/08 03:25:50;;;;;;;8.18;5.80;;;17.30;99.90;;;;;;5017940;28;20026;-71
2023/06/08 03:28:16;;;;;;;10.95;6.43;;;17.30;99.90;;;;;;5016965;28;20029;-70
2023/06/08 03:30:42;;;;;;;8.30;5.85;;;17.30;99.90;;;;;;5017358;28;20057;-71
2023/06/08 03:33:07;;;;;;;10.10;5.72;;;17.30;99.90;;;;;;5016826;28;20033;-71
2023/06/08 03:35:33;;;;;;;10.43;6.50;;;17.30;99.90;;;;;;5017604;28;20030;-71
2023/06/08 03:37:58;;;;;;;8.00;6.20;;;17.30;99.90;;;;;;5016881;28;20032;-71
2023/06/08 03:40:24;;;;;;;7.90;5.78;;;17.20;99.90;;;;;;5017533;28;20018;-71
2023/06/08 03:42:50;;;;;;;10.18;6.28;;;17.30;99.90;;;;;;5017379;28;20014;-71
2023/06/08 03:45:17;;;;;;;10.35;6.70;;;17.30;99.90;;;;;;5016996;28;20029;-71
2023/06/08 03:47:43;;;;;;;7.25;6.15;;;17.30;99.90;;;;;;5016746;28;20048;-71
2023/06/08 03:50:11;;;;;;;7.68;6.10;;;17.30;99.90;;;;;;5016664;28;20025;-71
2023/06/08 03:52:38;;;;;;;8.43;5.95;;;17.30;99.90;;;;;;5017494;28;20030;-71
2023/06/08 03:55:13;;;;;;;8.07;6.03;;;17.40;99.90;;;;;;5016415;28;20033;-71
2023/06/08 03:57:39;;;;;;;7.47;6.10;;;17.40;99.90;;;;;;5017707;28;20105;-71
2023/06/08 04:00:11;;;;;;;11.27;6.95;;;17.30;99.90;;;;;;5016819;28;20045;-71
2023/06/08 04:02:37;;;;;;;11.25;5.90;;;17.20;99.90;;;;;;5017302;28;20169;-71
2023/06/08 04:05:04;;;;;;;11.20;5.78;;;17.20;99.90;;;;;;5016494;28;20076;-71
2023/06/08 04:07:32;;;;;;;9.15;5.85;;;17.30;99.90;;;;;;5017416;28;20034;-71
2023/06/08 04:09:57;;;;;;;13.85;6.88;;;17.20;99.90;;;;;;5016547;28;20092;-71
2023/06/08 04:12:23;;;;;;;8.68;6.18;;;17.10;99.90;;;;;;5016177;28;20026;-71
2023/06/08 04:14:48;;;;;;;8.75;6.00;;;17.10;99.90;;;;;;5016097;28;20030;-71
2023/06/08 04:17:15;;;;;;;12.40;6.55;;;17.30;99.90;;;;;;5017213;28;20031;-71
2023/06/08 04:19:41;;;;;;;9.68;6.25;;;17.30;99.90;;;;;;5017705;28;20033;-71
2023/06/08 04:22:07;;;;;;;8.38;6.13;;;17.00;99.90;;;;;;5020764;28;20026;-71
2023/06/08 04:24:33;;;;;;;7.43;6.10;;;17.20;99.90;;;;;;5020453;28;20026;-71
2023/06/08 04:26:59;;;;;;;10.68;6.15;;;17.30;99.90;;;;;;5021422;28;20021;-71
2023/06/08 04:29:25;;;;;;;12.25;6.95;;;17.30;99.90;;;;;;5021285;28;20089;-71
2023/06/08 04:31:51;;;;;;;10.02;6.55;;;17.30;99.90;;;;;;5020172;28;20029;-71
2023/06/08 04:34:17;;;;;;;8.77;5.82;;;17.50;99.90;;;;;;5020364;28;20173;-71
2023/06/08 04:36:43;;;;;;;10.18;7.60;;;17.30;99.90;;;;;;5020084;28;20022;-71
2023/06/08 04:39:09;;;;;;;11.05;6.43;;;17.10;99.90;;;;;;5020303;28;20021;-71
2023/06/08 04:41:35;;;;;;;9.70;6.28;;;17.20;99.90;;;;;;5020753;28;20022;-71
2023/06/08 04:44:02;;;;;;;13.23;6.72;;;17.40;99.90;;;;;;5019976;28;20022;-71
2023/06/08 04:46:37;;;;;;;8.73;6.10;;;17.30;99.90;;;;;;5020198;28;20026;-71
2023/06/08 04:49:03;;;;;;;9.27;6.53;;;17.30;99.90;;;;;;5020017;28;20030;-71
2023/06/08 04:51:29;;;;;;;7.03;6.05;;;17.40;99.90;;;;;;5019893;28;20133;-71
2023/06/08 04:53:56;;;;;;;9.93;6.35;;;17.50;99.90;;;;;;5020612;28;20017;-71
2023/06/08 04:56:23;;;;;;;10.75;6.45;;;17.40;99.90;;;;;;5020117;28;20022;-71
2023/06/08 04:58:49;;;;;;;7.72;5.70;;;17.50;99.90;;;;;;5019875;28;20032;-71
2023/06/08 05:01:15;;;;;;;8.27;6.55;;;17.40;99.90;;;;;;5019697;28;20097;-71
2023/06/08 05:03:42;;;;;;;11.80;6.57;;;17.60;99.90;;;;;;5019576;28;20028;-70
2023/06/08 05:06:07;;;;;;;11.02;6.22;;;17.60;99.90;;;;;;5020204;28;20072;-71
2023/06/08 05:08:33;;;;;;;10.32;6.35;;;17.70;99.90;;;;;;5019559;28;20037;-71
2023/06/08 05:10:58;;;;;;;9.27;5.93;;;17.70;99.90;;;;;;5019926;28;20046;-71
2023/06/08 05:13:24;;;;;;;9.18;6.38;;;17.70;99.90;;;;;;5019393;28;20105;-71
2023/06/08 05:15:50;;;;;;;8.45;6.18;;;17.80;99.90;;;;;;5019831;28;20026;-71
2023/06/08 05:18:16;;;;;;;8.07;6.22;;;17.80;99.90;;;;;;5020320;28;20085;-71
2023/06/08 05:20:41;;;;;;;10.25;6.10;;;18.00;99.90;;;;;;5019385;28;20022;-71
2023/06/08 05:23:07;;;;;;;12.15;6.55;;;18.00;99.90;;;;;;5019204;28;20025;-71
2023/06/08 05:25:36;;;;;;;12.73;7.28;;;18.00;99.90;;;;;;5019248;28;20026;-71
2023/06/08 05:28:03;;;;;;;8.77;6.15;;;18.10;99.90;;;;;;5019220;28;20049;-71
2023/06/08 05:30:28;;;;;;;9.68;6.93;;;18.00;99.90;;;;;;5019100;28;20060;-71
2023/06/08 05:32:55;;;;;;;13.93;6.93;;;18.10;99.90;;;;;;5018443;28;20026;-71
2023/06/08 05:35:21;;;;;;;8.90;6.85;;;18.10;99.90;;;;;;5019945;28;20022;-71
2023/06/08 05:37:46;;;;;;;11.15;6.38;;;18.10;99.90;;;;;;5019077;28;20063;-71
2023/06/08 05:40:12;;;;;;;8.75;5.72;;;18.20;99.90;;;;;;5019081;28;20047;-71
2023/06/08 05:42:38;;;;;;;8.55;5.60;;;18.20;99.90;;;;;;5019451;28;20022;-71
2023/06/08 05:45:04;;;;;;;10.32;6.25;;;18.20;99.90;;;;;;5018856;28;20033;-71
2023/06/08 05:47:29;;;;;;;8.77;6.22;;;18.30;99.90;;;;;;5019778;28;20030;-71
2023/06/08 05:49:55;;;;;;;9.45;6.00;;;18.30;99.90;;;;;;5018728;28;20048;-71
2023/06/08 05:52:20;;;;;;;13.75;6.53;;;18.40;99.90;;;;;;5018834;28;20030;-71
2023/06/08 05:54:46;;;;;;;12.05;6.07;;;18.40;99.90;;;;;;5018654;28;20022;-71
2023/06/08 05:57:12;;;;;;;8.75;6.00;;;18.40;99.90;;;;;;5019283;28;20068;-71
2023/06/08 05:59:37;;;;;;;9.65;5.75;;;18.30;99.90;;;;;;5018734;28;20026;-71
2023/06/08 06:02:03;;;;;;;8.68;6.13;;;18.30;99.90;;;;;;5019404;28;20022;-71
2023/06/08 06:04:29;;;;;;;9.15;5.70;;;18.40;99.90;;;;;;5019390;28;20109;-71
2023/06/08 06:06:54;;;;;;;9.05;6.10;;;18.40;99.90;;;;;;5018780;28;20041;-71
2023/06/08 06:09:20;;;;;;;9.45;6.10;;;18.40;99.90;;;;;;5019137;28;20022;-71
2023/06/08 06:11:47;;;;;;;6.22;5.63;;;18.50;99.90;;;;;;5018434;28;20022;-71
2023/06/08 06:14:12;;;;;;;10.63;5.72;;;18.60;99.90;;;;;;5018056;28;20026;-71
2023/06/08 06:16:39;;;;;;;8.60;5.80;;;18.80;99.90;;;;;;5018730;28;20080;-71
2023/06/08 06:19:04;;;;;;;9.40;6.25;;;18.80;99.90;;;;;;5018149;28;20025;-71
2023/06/08 06:21:30;;;;;;;9.52;5.20;;;18.80;99.90;;;;;;5018837;28;20018;-71
2023/06/08 06:23:55;;;;;;;7.55;5.53;;;18.90;99.90;;;;;;5018546;28;20017;-71
2023/06/08 06:26:21;;;;;;;7.05;5.90;;;19.00;99.90;;;;;;5018167;28;20022;-71
2023/06/08 06:28:46;;;;;;;9.07;5.70;;;19.10;99.90;;;;;;5019300;28;20169;-71
2023/06/08 06:31:12;;;;;;;12.02;5.70;;;19.10;99.90;;;;;;5018249;28;20025;-71
2023/06/08 06:33:37;;;;;;;9.45;6.13;;;19.10;99.90;;;;;;5017785;28;20025;-71
2023/06/08 06:36:03;;;;;;;10.52;6.13;;;19.20;99.90;;;;;;5018850;28;20041;-71
2023/06/08 06:38:29;;;;;;;8.77;5.28;;;19.20;99.90;;;;;;5018195;28;20152;-71
2023/06/08 06:40:55;;;;;;;8.35;6.00;;;19.30;99.90;;;;;;5018714;28;20029;-71
2023/06/08 06:43:21;;;;;;;10.85;6.35;;;19.40;99.90;;;;;;5016682;28;20026;-71
2023/06/08 06:45:50;;;;;;;8.35;5.82;;;19.40;99.90;;;;;;5018276;28;20033;-71
2023/06/08 06:48:20;;;;;;;9.38;5.50;;;19.40;99.90;;;;;;5018462;28;20022;-71
2023/06/08 06:50:46;;;;;;;7.13;6.03;;;19.50;99.90;;;;;;5018641;28;20105;-71
2023/06/08 06:53:11;;;;;;;6.65;5.20;;;19.70;99.90;;;;;;5017977;28;20025;-71
2023/06/08 06:55:37;;;;;;;6.95;5.50;;;19.80;99.90;;;;;;5017536;28;20044;-71
2023/06/08 06:58:03;;;;;;;8.68;5.40;;;19.80;99.90;;;;;;5017873;28;20095;-71
2023/06/08 07:00:32;;;;;;;8.63;6.32;;;19.90;99.90;;;;;;5017555;28;20018;-71
2023/06/08 07:02:58;;;;;;;8.85;5.53;;;20.00;99.90;;;;;;5018162;28;20080;-71
2023/06/08 07:05:23;;;;;;;8.32;5.70;;;20.00;99.90;;;;;;5017663;28;20121;-71
2023/06/08 07:07:49;;;;;;;9.30;6.00;;;20.10;99.90;;;;;;5017236;28;20133;-71
2023/06/08 07:10:15;;;;;;;6.50;5.13;;;20.20;99.90;;;;;;5017712;28;20045;-71
2023/06/08 07:12:41;;;;;;;7.28;6.13;;;20.30;99.90;;;;;;5031478;22;20041;-67
2023/06/08 07:15:07;;;;;;;11.25;6.50;;;20.40;99.90;;;;;;5017114;28;20037;-67
2023/06/08 07:17:33;;;;;;;8.40;6.40;;;20.50;99.90;;;;;;5033679;28;20041;-67
2023/06/08 07:19:59;;;;;;;9.02;6.13;;;20.50;99.90;;;;;;5017293;28;20090;-67
2023/06/08 07:22:24;;;;;;;9.63;5.80;;;20.60;99.90;;;;;;5033603;28;20080;-67
2023/06/08 07:24:50;;;;;;;8.27;5.55;;;20.70;99.90;;;;;;5033411;28;20022;-67
2023/06/08 07:27:15;;;;;;;7.60;5.93;;;20.80;99.90;;;;;;5017920;28;20033;-67
2023/06/08 07:29:41;;;;;;;9.60;6.20;;;20.90;99.90;;;;;;5033476;28;20057;-68
2023/06/08 07:32:07;;;;;;;7.95;5.68;;;21.00;99.90;;;;;;5033551;28;20029;-67
2023/06/08 07:34:32;;;;;;;7.13;5.53;;;21.10;99.90;;;;;;5016791;28;20030;-67
2023/06/08 07:36:58;;;;;;;9.30;6.03;;;21.20;99.90;;;;;;5017900;28;20076;-68
2023/06/08 07:39:24;;;;;;;5.97;5.38;;;21.20;99.90;;;;;;5033150;28;20022;-67
2023/06/08 07:41:50;;;;;;;7.97;6.50;;;21.30;99.90;;;;;;5033458;28;20022;-68
2023/06/08 07:44:15;;;;;;;8.30;6.05;;;21.40;99.90;;;;;;5033493;28;20029;-67
2023/06/08 07:46:41;;;;;;;10.70;6.22;;;21.40;99.90;;;;;;5033503;28;20033;-68
2023/06/08 07:49:06;;;;;;;8.98;5.97;;;21.50;99.90;;;;;;5034224;28;20037;-67
2023/06/08 07:51:32;;;;;;;10.18;6.03;;;21.60;99.90;;;;;;5033033;28;20033;-70
2023/06/08 07:53:57;;;;;;;10.88;5.53;;;21.60;99.90;;;;;;5032560;28;20030;-70
2023/06/08 07:56:23;;;;;;;10.65;6.57;;;21.60;99.90;;;;;;5033081;28;20036;-70
2023/06/08 07:58:48;;;;;;;7.85;6.00;;;21.70;99.90;;;;;;5033016;28;20022;-69
2023/06/08 08:01:15;;;;;;;7.63;6.18;;;21.70;99.90;;;;;;5034186;28;20048;-70
2023/06/08 08:03:40;;;;;;;7.47;5.75;;;21.80;99.90;;;;;;5032886;28;20022;-71
2023/06/08 08:06:06;;;;;;;8.70;6.00;;;21.80;99.90;;;;;;5032954;28;20029;-72
2023/06/08 08:08:32;;;;;;;6.97;5.80;;;21.90;99.90;;;;;;5032742;28;20049;-72
2023/06/08 08:10:57;;;;;;;6.50;5.80;;;22.00;99.90;;;;;;5017202;28;20057;-72
2023/06/08 08:13:23;;;;;;;8.93;6.10;;;22.20;99.90;;;;;;5032509;28;20037;-72
2023/06/08 08:15:48;;;;;;;9.10;6.30;;;22.40;99.90;;;;;;5032834;28;20083;-72
2023/06/08 08:18:14;;;;;;;9.02;5.78;;;22.50;99.90;;;;;;5032865;28;20021;-70
2023/06/08 08:20:40;;;;;;;8.02;5.63;;;22.50;99.90;;;;;;5016270;28;20038;-70
2023/06/08 08:23:05;;;;;;;7.93;6.20;;;22.80;99.90;;;;;;5033053;28;20036;-71
2023/06/08 08:25:31;;;;;;;7.78;5.57;;;22.70;99.90;;;;;;5032736;28;20030;-71
2023/06/08 08:27:57;;;;;;;8.00;5.93;;;22.80;99.90;;;;;;5032794;28;20029;-73
2023/06/08 08:30:23;;;;;;;6.85;5.95;;;22.80;99.90;;;;;;5032600;28;20048;-70
2023/06/08 08:32:49;;;;;;;6.07;5.47;;;22.70;99.90;;;;;;5033365;28;20093;-70
2023/06/08 08:35:15;;;;;;;6.07;5.45;;;22.70;99.90;;;;;;5033467;28;20093;-70
2023/06/08 08:37:42;;;;;;;7.65;5.53;;;22.70;99.90;;;;;;5016229;28;20080;-70
2023/06/08 08:40:09;;;;;;;6.40;5.70;;;22.90;99.90;;;;;;5017397;28;20045;-69
2023/06/08 08:42:42;;;;;;;9.30;6.40;;;23.00;99.90;;;;;;5016957;28;20025;-71
2023/06/08 08:45:09;;;;;;;11.25;5.50;;;23.20;99.90;;;;;;5017015;28;20036;-71
2023/06/08 08:47:35;;;;;;;6.78;5.47;;;23.30;99.90;;;;;;5016940;28;20030;-68
2023/06/08 08:50:06;;;;;;;7.72;5.88;;;23.60;99.90;;;;;;5016853;28;20113;-68
2023/06/08 08:52:37;;;;;;;9.60;6.40;;;23.60;99.90;;;;;;5017264;28;20097;-68
2023/06/08 08:55:05;;;;;;;6.80;6.10;;;23.50;99.90;;;;;;5032472;28;20026;-71
2023/06/08 08:57:31;;;;;;;9.13;6.10;;;23.60;99.90;;;;;;5016059;28;20026;-69
2023/06/08 08:59:58;;;;;;;6.28;5.68;;;23.60;99.90;;;;;;5032093;28;20026;-70
2023/06/08 09:02:25;;;;;;;8.05;5.90;;;23.60;99.90;;;;;;5016465;28;20101;-71
2023/06/08 09:04:52;;;;;;;8.32;6.10;;;23.70;99.90;;;;;;5016206;28;20026;-71
2023/06/08 09:07:24;;;;;;;6.40;5.55;;;23.80;99.90;;;;;;5018184;28;20124;-70
2023/06/08 09:10:21;;;;;;;10.45;5.90;;;24.00;99.90;;;;;;5019838;28;20026;-70
2023/06/08 09:12:49;;;;;;;8.43;5.55;;;24.20;99.90;;;;;;5020024;28;20026;-67
2023/06/08 09:15:27;;;;;;;7.43;5.22;;;24.50;99.90;;;;;;5020586;28;20120;-67
2023/06/08 09:17:57;;;;;;;6.28;5.20;;;24.60;99.90;;;;;;5019744;28;20054;-69
2023/06/08 09:20:27;;;;;;;8.43;5.80;;;24.70;99.90;;;;;;5020196;28;20053;-69
2023/06/08 09:26:31;;;;;;;6.90;5.70;;;24.40;99.90;;;;;;5020384;28;20037;-69
2023/06/08 09:28:56;;;;;;;7.47;6.28;;;24.80;99.90;;;;;;5019305;28;20025;-69
2023/06/08 09:31:22;;;;;;;6.55;5.88;;;24.80;99.90;;;;;;5019445;28;20022;-69
2023/06/08 09:33:48;;;;;;;7.90;5.40;;;24.60;99.90;;;;;;5019314;28;20064;-69
2023/06/08 09:36:17;;;;;;;6.18;5.30;;;24.40;99.90;;;;;;5019448;28;20056;-69
2023/06/08 09:38:43;;;;;;;8.60;5.30;;;24.60;99.90;;;;;;5019883;28;20022;-69
2023/06/08 09:41:17;;;;;;;7.43;5.03;;;24.80;99.90;;;;;;5013034;28;20029;-69
2023/06/08 09:43:45;;;;;;;8.60;5.60;;;24.80;99.90;;;;;;5030075;28;20022;-69
2023/06/08 09:46:15;;;;;;;6.72;5.22;;;24.90;99.90;;;;;;5010786;28;20034;-69
2023/06/08 09:48:50;;;;;;;6.80;4.90;;;25.00;99.90;;;;;;5009881;28;20030;-68
2023/06/08 09:51:17;;;;;;;6.55;5.20;;;25.00;99.90;;;;;;5013796;28;20268;-69
2023/06/08 09:53:44;;;;;;;8.07;5.40;;;25.00;99.90;;;;;;5010957;28;20117;-69
2023/06/08 09:56:10;;;;;;;7.15;4.88;;;25.00;99.90;;;;;;5007822;28;20036;-69
2023/06/08 09:58:38;;;;;;;7.07;5.15;;;25.20;99.90;;;;;;5009520;28;20021;-69
2023/06/08 10:01:09;;;;;;;6.10;4.70;;;25.10;99.90;;;;;;5009458;28;20029;-69
2023/06/08 10:03:47;;;;;;;5.30;4.80;;;25.10;99.90;;;;;;5010053;28;20030;-69
2023/06/08 10:06:16;;;;;;;4.90;4.47;;;25.10;99.90;;;;;;5008736;28;20261;-69
2023/06/08 10:08:46;;;;;;;5.72;4.70;;;25.20;99.90;;;;;;5003221;28;20087;-69
2023/06/08 10:11:13;;;;;;;5.43;4.90;;;25.50;99.90;;;;;;5009538;28;20045;-68
2023/06/08 10:13:40;;;;;;;8.30;5.00;;;25.80;99.90;;;;;;5028042;28;20100;-69
2023/06/08 10:16:06;;;;;;;9.25;4.88;;;25.70;99.90;;;;;;5025252;28;20113;-69
2023/06/08 10:18:33;;;;;;;7.45;4.50;;;25.90;99.90;;;;;;5007543;28;20027;-68
2023/06/08 10:21:02;;;;;;;8.15;5.28;;;25.70;99.90;;;;;;5009124;28;20017;-69
2023/06/08 10:23:28;;;;;;;6.13;5.07;;;25.80;99.90;;;;;;5008035;28;20033;-68
2023/06/08 10:25:55;;;;;;;10.98;4.88;;;25.60;99.90;;;;;;5008485;28;20030;-69
2023/06/08 10:28:21;;;;;;;6.93;4.97;;;25.50;99.90;;;;;;5005878;28;20023;-69
2023/06/08 10:30:47;;;;;;;10.55;5.03;;;25.50;99.90;;;;;;5012359;28;20018;-69
2023/06/08 10:33:19;;;;;;;5.90;4.88;;;25.70;99.90;;;;;;5018088;28;20045;-68
2023/06/08 10:36:06;;;;;;;6.20;4.50;;;25.70;99.90;;;;;;5035264;28;20061;-68
2023/06/08 10:38:51;;;;;;;5.20;4.40;;;25.90;99.90;;;;;;5017809;28;20022;-68
2023/06/08 10:41:46;;;;;;;8.10;4.93;;;26.30;99.90;;;;;;5035381;28;20033;-72
2023/06/08 10:44:34;;;;;;;5.18;4.65;;;26.70;99.90;;;;;;5017895;28;20045;-72
2023/06/08 10:47:07;;;;;;;6.03;4.57;;;27.00;99.90;;;;;;5018530;28;20022;-72
2023/06/08 10:49:43;;;;;;;4.75;4.25;;;27.30;99.90;;;;;;5018719;28;20025;-72
2023/06/08 10:52:10;;;;;;;4.57;4.18;;;27.40;99.90;;;;;;5017726;28;20030;-72
2023/06/08 10:54:48;;;;;;;5.55;4.45;;;27.30;99.90;;;;;;5017570;28;20026;-72
2023/06/08 10:57:34;;;;;;;5.72;4.53;;;27.40;99.90;;;;;;5017731;28;20026;-73
2023/06/08 11:00:00;;;;;;;5.07;4.57;;;27.70;99.90;;;;;;5018492;28;20014;-71
2023/06/08 11:02:29;;;;;;;4.50;4.10;;;28.10;99.90;;;;;;5017547;28;20072;-71
2023/06/08 11:04:56;;;;;;;5.13;4.60;;;28.00;99.90;;;;;;5017521;28;20033;-71
2023/06/08 11:07:25;;;;;;;5.75;4.80;;;28.10;99.90;;;;;;5018659;28;20159;-71
2023/06/08 11:09:51;;;;;;;7.55;4.53;;;27.90;99.90;;;;;;5017352;28;20111;-71
2023/06/08 11:12:19;;;;;;;4.68;4.28;;;28.00;99.90;;;;;;5017518;28;20050;-71
2023/06/08 11:14:45;;;;;;;6.82;4.30;;;28.40;99.90;;;;;;5017196;28;20041;-71
2023/06/08 11:17:10;;;;;;;7.18;4.80;;;28.80;99.90;;;;;;5017588;28;20025;-71
2023/06/08 11:19:36;;;;;;;4.35;3.95;;;29.00;99.90;;;;;;5018140;28;20071;-71
2023/06/08 11:22:02;;;;;;;5.03;4.18;;;29.20;99.90;;;;;;5033525;28;20040;-71
2023/06/08 11:24:28;;;;;;;4.68;3.60;;;29.40;99.90;;;;;;5017296;28;20021;-71
2023/06/08 11:27:00;;;;;;;5.85;4.40;;;29.40;99.90;;;;;;5017343;28;20022;-71
2023/06/08 11:29:27;;;;;;;4.22;3.83;;;29.50;99.90;;;;;;5017650;28;20072;-71
2023/06/08 11:31:53;;;;;;;5.10;4.28;;;28.80;99.90;;;;;;5018130;28;20080;-71
2023/06/08 11:34:19;;;;;;;6.10;4.82;;;28.40;99.90;;;;;;5017321;28;20022;-67
2023/06/08 11:36:45;;;;;;;4.60;4.20;;;28.00;99.90;;;;;;5017087;28;20080;-68
2023/06/08 11:39:11;;;;;;;5.22;4.35;;;27.90;99.90;;;;;;5017755;28;20033;-68
2023/06/08 11:41:40;;;;;;;7.32;4.30;;;27.60;99.90;;;;;;5018105;28;20022;-67
2023/06/08 11:44:05;;;;;;;4.10;3.70;;;27.30;99.90;;;;;;5017497;28;20145;-67
2023/06/08 11:46:32;;;;;;;4.65;3.92;;;27.30;99.90;;;;;;5016822;28;20113;-67
2023/06/08 11:49:10;;;;;;;4.60;4.20;;;27.20;99.90;;;;;;5016815;28;20028;-67
2023/06/08 11:51:52;;;;;;;4.70;4.30;;;27.00;99.90;;;;;;5017588;28;20030;-68
2023/06/08 11:54:18;;;;;;;4.93;4.20;;;26.70;99.90;;;;;;5016603;28;20030;-67
2023/06/08 11:56:45;;;;;;;7.03;4.22;;;27.00;99.90;;;;;;5016483;28;20033;-71
2023/06/08 11:59:12;;;;;;;6.10;4.32;;;27.00;99.90;;;;;;5034198;28;20026;-71
2023/06/08 12:01:52;;;;;;;5.03;4.47;;;26.90;99.90;;;;;;5016524;28;20033;-71
2023/06/08 12:04:19;;;;;;;5.05;4.55;;;26.80;99.90;;;;;;5016758;28;20025;-71
2023/06/08 12:06:45;;;;;;;4.43;4.03;;;26.80;99.90;;;;;;5016771;28;20160;-71
2023/06/08 12:09:10;;;;;;;5.03;4.53;;;26.60;99.90;;;;;;5017343;28;20061;-71
2023/06/08 12:11:36;;;;;;;6.60;4.95;;;26.50;99.90;;;;;;5032976;28;20029;-70
2023/06/08 12:14:03;;;;;;;9.00;4.20;;;26.50;99.90;;;;;;5016587;28;20097;-71
2023/06/08 12:16:42;;;;;;;4.68;4.28;;;26.70;99.90;;;;;;5016280;28;20014;-71
2023/06/08 12:19:07;;;;;;;7.93;4.43;;;27.00;99.90;;;;;;5017381;28;20101;-71
2023/06/08 12:21:39;;;;;;;6.95;4.00;;;27.40;99.90;;;;;;5017526;28;20065;-70
2023/06/08 12:24:05;;;;;;;4.45;4.03;;;27.70;99.90;;;;;;5016442;28;20022;-71
2023/06/08 12:26:30;;;;;;;4.93;4.10;;;27.90;99.90;;;;;;5016349;28;20022;-71
2023/06/08 12:29:04;;;;;;;5.53;4.20;;;28.00;99.90;;;;;;5016259;28;20030;-71
2023/06/08 12:31:30;;;;;;;5.65;5.00;;;28.10;99.90;;;;;;5032649;28;20053;-71
2023/06/08 12:33:55;;;;;;;6.03;4.40;;;28.00;99.90;;;;;;5016078;28;20018;-71
2023/06/08 12:36:22;;;;;;;4.90;4.50;;;27.50;99.90;;;;;;5016292;28;20025;-71
2023/06/08 12:38:48;;;;;;;5.97;4.13;;;27.50;99.90;;;;;;5017102;28;20018;-71
2023/06/08 12:41:13;;;;;;;5.57;4.60;;;27.30;99.90;;;;;;5016737;28;20033;-71
2023/06/08 12:43:43;;;;;;;5.72;4.53;;;27.30;99.90;;;;;;5020944;28;20025;-71
2023/06/08 12:46:09;;;;;;;7.10;5.07;;;27.60;99.90;;;;;;5020061;28;20025;-71
2023/06/08 12:48:34;;;;;;;4.85;4.28;;;27.50;99.90;;;;;;5036964;28;20018;-72
2023/06/08 12:51:00;;;;;;;6.15;4.03;;;27.50;99.90;;;;;;5020717;28;20113;-71
2023/06/08 12:53:27;;;;;;;4.68;4.18;;;27.20;99.90;;;;;;5020239;28;20022;-71